»·PEaware :: UAL359 OPLA-KLAX

UAL359 :: OPLA-KLAX

FLIGHT INFORMATION

Flight Status: Arrived
Operator:
United Airlines
More flights by this operator :: More flights under this callsign
Pilot: Scott L. (17677)
Aircraft: Unknown
(A359)
More flights by this aircraft type
Origin: OPLA Allama Iqbal Intl
Pakistan
Destination: KLAX Los Angeles Intl
United States
More flights between these airports :: More routes between these airports
Route: AKBER1D AKBER J121 INDEK L509 NONIB J139 HANGU L509 LAJAK M881 NIPIR/K0915F330 M881 EGPAN/K0907F340 V876 IVNAR OSH/K0898F350 BALGO BLH BAROV R484 DIMID R27 OKEDU/K0900F370 R27 OLEMU/K0900F250 R27 NESPA/K0883F370 B954 GIKSI G7 LURET R351 PETIV/K0902F390 R351 BEKMI M182 PEMID M180 FRENK/N0488F390 B244 OTZ J502 FAI J515 ORT YZT/N0481F410 J523 TOU J54 SUMMA J5 EHF WAYVE1
File this flight plan on PilotEdge
Remarks: RMK / SIMBRIEF
Altitude:
(Current/Filed)
34,000ft
Speed:
(Current/Filed)
500kts
Departed: 24-Nov-21 08:19 PM
Arrived: 25-Nov-21 10:47 AM
Distance/Time
Traveled:
6806nm/14:28
Distance/Time
To Go:
Arrived

Flight Plot

Page will automatically refresh every two minutes.

Flight plan parsing failed; only flown route is shown


Map Options




Map Legend


Flown Route
Filed Route
Departure Airport
Arrival Airport
Navaid (VOR, NDB)
Fix

Horizontal Profiles

Position Reports

Time Latitude Longitude Heading Altitude Ground
Speed
24-Nov-21 20:16 31.510002 74.406522 181 712ft 26kts
24-Nov-21 20:17 31.507288 74.405846 221 712ft 1kts
24-Nov-21 20:18 31.513688 74.404446 359 712ft 107kts
24-Nov-21 20:19 31.562912 74.405419 1 1706ft 222kts
24-Nov-21 20:20 31.629832 74.404905 340 3520ft 259kts
24-Nov-21 20:21 31.665765 74.332405 306 5782ft 270kts
24-Nov-21 20:22 31.715005 74.264151 313 8163ft 277kts
24-Nov-21 20:23 31.767669 74.197326 313 10426ft 284kts
24-Nov-21 20:24 31.826474 74.123183 313 11501ft 336kts
24-Nov-21 20:25 31.902284 74.045889 321 12650ft 383kts
24-Nov-21 20:26 31.987016 73.968921 322 15205ft 385kts
24-Nov-21 20:27 32.072747 73.892579 321 17524ft 387kts
24-Nov-21 20:28 32.159205 73.815522 320 19636ft 390kts
24-Nov-21 20:29 32.245274 73.738454 319 21556ft 394kts
24-Nov-21 20:30 32.331837 73.660615 318 23291ft 398kts
24-Nov-21 20:31 32.420767 73.580438 318 24867ft 402kts
24-Nov-21 20:32 32.510234 73.499520 317 26256ft 406kts
24-Nov-21 20:33 32.600908 73.417244 316 27459ft 411kts
24-Nov-21 20:34 32.692186 73.334116 315 28555ft 415kts
24-Nov-21 20:35 32.775567 73.242529 304 30012ft 399kts
24-Nov-21 20:36 32.839227 73.135065 298 30892ft 398kts
24-Nov-21 20:37 32.899958 73.026118 297 31923ft 392kts
24-Nov-21 20:38 32.959932 72.917719 297 32636ft 389kts
24-Nov-21 20:39 33.019328 72.809827 298 33016ft 392kts
24-Nov-21 20:40 33.079769 72.699917 299 33110ft 399kts
24-Nov-21 20:41 33.141443 72.588153 300 33156ft 404kts
24-Nov-21 20:42 33.203078 72.475923 300 33157ft 403kts
24-Nov-21 20:43 33.264301 72.363723 300 33156ft 404kts
24-Nov-21 20:44 33.325526 72.250661 299 33156ft 403kts
24-Nov-21 20:45 33.386692 72.137580 299 33158ft 403kts
24-Nov-21 20:46 33.447743 72.024514 299 33157ft 404kts
24-Nov-21 20:47 33.503323 71.908184 290 33158ft 400kts
24-Nov-21 20:48 33.528953 71.779017 276 33158ft 400kts
24-Nov-21 20:49 33.525387 71.644369 269 33152ft 404kts
24-Nov-21 20:50 33.517545 71.510221 269 33156ft 403kts
24-Nov-21 20:51 33.509304 71.375654 269 33153ft 404kts
24-Nov-21 20:52 33.500918 71.241436 268 33152ft 405kts
24-Nov-21 20:53 33.495562 71.106564 276 33157ft 401kts
24-Nov-21 20:54 33.528002 70.979724 296 33157ft 404kts
24-Nov-21 20:55 33.601785 70.875895 310 33158ft 415kts
24-Nov-21 20:56 33.685903 70.780238 310 33158ft 418kts
24-Nov-21 20:57 33.770516 70.684414 310 33155ft 417kts
24-Nov-21 20:58 33.855264 70.588593 313 33155ft 420kts
24-Nov-21 20:59 33.957695 70.515673 331 33156ft 442kts
24-Nov-21 21:00 34.079535 70.489827 347 33157ft 454kts
24-Nov-21 21:01 34.205846 70.481549 347 33157ft 455kts
24-Nov-21 21:02 34.331851 70.473125 347 33158ft 454kts
24-Nov-21 21:03 34.457636 70.464572 347 33157ft 454kts
24-Nov-21 21:04 34.584054 70.455928 347 33158ft 454kts
24-Nov-21 21:05 34.710541 70.447272 347 33155ft 454kts
24-Nov-21 21:06 34.836433 70.438616 347 33157ft 453kts
24-Nov-21 21:07 34.962142 70.429777 349 33158ft 451kts
24-Nov-21 21:08 35.088069 70.421320 351 33156ft 460kts
24-Nov-21 21:09 35.217836 70.424916 355 33159ft 467kts
24-Nov-21 21:10 35.347371 70.430228 355 33157ft 467kts
24-Nov-21 21:11 35.477270 70.435361 355 33158ft 468kts
24-Nov-21 21:12 35.606762 70.440478 355 33158ft 466kts
24-Nov-21 21:13 35.737015 70.445644 355 33178ft 468kts
24-Nov-21 21:14 35.866722 70.450783 355 33187ft 469kts
24-Nov-21 21:15 35.998302 70.456029 355 33239ft 474kts
24-Nov-21 21:16 36.130248 70.461376 355 33288ft 475kts
24-Nov-21 21:17 36.262316 70.466712 355 33292ft 474kts
24-Nov-21 21:18 36.394243 70.472019 355 33294ft 474kts
24-Nov-21 21:19 36.526032 70.477354 355 33296ft 474kts
24-Nov-21 21:21 36.657362 70.482687 355 33291ft 474kts
24-Nov-21 21:22 36.789271 70.488028 355 33295ft 473kts
24-Nov-21 21:23 36.920852 70.493350 355 33294ft 473kts
24-Nov-21 21:24 37.051323 70.498638 355 33289ft 468kts
24-Nov-21 21:25 37.181820 70.515806 1 33295ft 473kts
24-Nov-21 21:26 37.312238 70.538723 1 33295ft 473kts
24-Nov-21 21:27 37.442624 70.561465 1 33294ft 472kts
24-Nov-21 21:28 37.572540 70.584166 1 33295ft 473kts
24-Nov-21 21:29 37.703364 70.607111 1 33295ft 473kts
24-Nov-21 21:30 37.833794 70.630054 1 33294ft 473kts
24-Nov-21 21:31 37.963972 70.653050 1 33294ft 473kts
24-Nov-21 21:32 38.094374 70.676141 1 33295ft 474kts
24-Nov-21 21:33 38.224946 70.699325 1 33293ft 473kts
24-Nov-21 21:34 38.355381 70.719893 356 33295ft 468kts
24-Nov-21 21:35 38.483713 70.710515 343 33296ft 461kts
24-Nov-21 21:36 38.608730 70.672957 340 33294ft 462kts
24-Nov-21 21:37 38.733032 70.633170 340 33294ft 462kts
24-Nov-21 21:38 38.857925 70.593207 340 33295ft 461kts
24-Nov-21 21:39 38.982982 70.552977 340 33292ft 467kts
24-Nov-21 21:40 39.107888 70.512771 341 33289ft 463kts
24-Nov-21 21:41 39.237422 70.510887 14 33254ft 487kts
24-Nov-21 21:41 39.329311 70.596502 48 33245ft 508kts
24-Nov-21 21:43 39.429747 70.766420 49 33253ft 509kts
24-Nov-21 21:44 39.515927 70.911611 49 33265ft 506kts
24-Nov-21 21:45 39.601465 71.055944 49 33267ft 504kts
24-Nov-21 21:46 39.686718 71.200436 49 33267ft 504kts
24-Nov-21 21:46 39.757516 71.320930 49 33266ft 504kts
24-Nov-21 21:48 39.856453 71.490109 49 33265ft 504kts
24-Nov-21 21:49 39.940951 71.635293 49 33267ft 504kts
24-Nov-21 21:50 40.025598 71.781913 49 33264ft 504kts
24-Nov-21 21:50 40.095696 71.903571 49 33268ft 504kts
24-Nov-21 21:51 40.180265 72.050025 49 33266ft 504kts
24-Nov-21 21:52 40.264322 72.196940 49 33273ft 504kts
24-Nov-21 21:54 40.361724 72.368228 49 33292ft 503kts
24-Nov-21 21:55 40.445424 72.516157 49 33294ft 504kts
24-Nov-21 21:55 40.514769 72.639336 49 33294ft 504kts
24-Nov-21 21:56 40.608298 72.773532 31 33296ft 494kts
24-Nov-21 21:57 40.731535 72.844724 9 33295ft 480kts
24-Nov-21 21:58 40.861369 72.886159 9 33294ft 479kts
24-Nov-21 21:59 40.990392 72.928188 9 33294ft 480kts
24-Nov-21 22:00 41.120638 72.970957 9 33293ft 484kts
24-Nov-21 22:01 41.251198 73.013965 9 33294ft 485kts
24-Nov-21 22:02 41.382736 73.057585 9 33294ft 484kts
24-Nov-21 22:03 41.513091 73.100982 9 33294ft 485kts
24-Nov-21 22:04 41.644084 73.144772 9 33294ft 486kts
24-Nov-21 22:05 41.775062 73.188762 9 33294ft 485kts
24-Nov-21 22:06 41.905960 73.232902 9 33289ft 485kts
24-Nov-21 22:07 42.036899 73.277239 9 33224ft 486kts
24-Nov-21 22:08 42.168112 73.321793 9 33147ft 487kts
24-Nov-21 22:09 42.299513 73.366608 9 33133ft 487kts
24-Nov-21 22:10 42.431020 73.411736 10 33132ft 488kts
24-Nov-21 22:11 42.562650 73.457120 9 33136ft 488kts
24-Nov-21 22:12 42.693451 73.502436 10 33134ft 488kts
24-Nov-21 22:13 42.824323 73.547135 6 33845ft 482kts
24-Nov-21 22:14 42.956870 73.579807 4 34270ft 482kts
24-Nov-21 22:15 43.089097 73.615872 8 34430ft 491kts
24-Nov-21 22:16 43.222700 73.661174 9 34845ft 490kts
24-Nov-21 22:17 43.355037 73.706574 8 35072ft 491kts
24-Nov-21 22:18 43.488605 73.752136 8 35136ft 495kts
24-Nov-21 22:19 43.621865 73.797754 8 35135ft 500kts
24-Nov-21 22:20 43.758062 73.844592 8 35137ft 502kts
24-Nov-21 22:21 43.894118 73.891604 8 35135ft 502kts
24-Nov-21 22:22 44.030010 73.938768 8 35136ft 502kts
24-Nov-21 22:23 44.166194 73.986188 8 35136ft 502kts
24-Nov-21 22:24 44.302471 74.033843 8 35136ft 502kts
24-Nov-21 22:25 44.437804 74.081492 8 35135ft 502kts
24-Nov-21 22:26 44.573480 74.129496 8 35137ft 502kts
24-Nov-21 22:27 44.709672 74.177906 8 35136ft 502kts
24-Nov-21 22:28 44.845520 74.226425 8 35136ft 502kts
24-Nov-21 22:29 44.979438 74.274491 8 35133ft 503kts
24-Nov-21 22:30 45.116279 74.323913 7 35061ft 511kts
24-Nov-21 22:31 45.256041 74.374322 7 34985ft 518kts
24-Nov-21 22:32 45.396314 74.425431 7 34973ft 518kts
24-Nov-21 22:33 45.535337 74.476344 7 34971ft 518kts
24-Nov-21 22:34 45.675100 74.527799 7 34971ft 517kts
24-Nov-21 22:35 45.815219 74.579636 7 34971ft 517kts
24-Nov-21 22:36 45.954311 74.631352 7 34972ft 518kts
24-Nov-21 22:37 46.091521 74.683003 8 34971ft 518kts
24-Nov-21 22:38 46.230635 74.735395 8 34973ft 518kts
24-Nov-21 22:39 46.370862 74.788342 8 34972ft 519kts
24-Nov-21 22:40 46.510229 74.841290 8 34971ft 518kts
24-Nov-21 22:41 46.649198 74.894339 8 34971ft 518kts
24-Nov-21 22:42 46.788392 74.947806 8 34972ft 515kts
24-Nov-21 22:43 46.925253 75.019052 20 34972ft 526kts
24-Nov-21 22:44 47.055229 75.123606 21 34971ft 536kts
24-Nov-21 22:45 47.185808 75.230242 21 34972ft 538kts
24-Nov-21 22:46 47.317408 75.338026 21 34972ft 538kts
24-Nov-21 22:47 47.448648 75.446296 21 34971ft 539kts
24-Nov-21 22:48 47.580001 75.555295 21 34972ft 538kts
24-Nov-21 22:49 47.710195 75.663952 22 34967ft 539kts
24-Nov-21 22:50 47.840786 75.774151 22 34973ft 539kts
24-Nov-21 22:51 47.971702 75.884761 22 34972ft 539kts
24-Nov-21 22:52 48.098354 75.992337 22 34972ft 539kts
24-Nov-21 22:53 48.229687 76.104158 22 34973ft 539kts
24-Nov-21 22:54 48.359388 76.215531 22 34973ft 539kts
24-Nov-21 22:55 48.489614 76.328097 22 34972ft 539kts
24-Nov-21 22:56 48.619757 76.441293 22 34972ft 538kts
24-Nov-21 22:57 48.749136 76.554473 22 34972ft 538kts
24-Nov-21 22:58 48.878947 76.668754 23 34969ft 539kts
24-Nov-21 22:59 49.008635 76.784188 23 34969ft 542kts
24-Nov-21 23:00 49.139663 76.900944 22 34969ft 549kts
24-Nov-21 23:01 49.272258 77.019366 22 34865ft 548kts
24-Nov-21 23:02 49.402782 77.137096 22 34773ft 546kts
24-Nov-21 23:03 49.533886 77.256115 22 34755ft 546kts
24-Nov-21 23:04 49.664723 77.375613 22 34753ft 547kts
24-Nov-21 23:05 49.795463 77.495824 22 34750ft 546kts
24-Nov-21 23:06 49.926025 77.616596 22 34749ft 546kts
24-Nov-21 23:07 50.056349 77.738362 23 34753ft 547kts
24-Nov-21 23:08 50.186777 77.860457 23 34765ft 547kts
24-Nov-21 23:09 50.317159 77.983298 23 34757ft 546kts
24-Nov-21 23:10 50.447265 78.106769 23 34779ft 547kts
24-Nov-21 23:11 50.577408 78.231098 23 34853ft 547kts
24-Nov-21 23:12 50.707248 78.356031 23 34856ft 545kts
24-Nov-21 23:13 50.836817 78.481448 23 34869ft 546kts
24-Nov-21 23:14 50.966729 78.608065 22 34870ft 553kts
24-Nov-21 23:15 51.098172 78.737374 23 34845ft 563kts
24-Nov-21 23:16 51.232316 78.869622 23 34860ft 569kts
24-Nov-21 23:17 51.365113 79.001678 23 34860ft 568kts
24-Nov-21 23:18 51.498409 79.135289 22 34862ft 563kts
24-Nov-21 23:19 51.630500 79.268509 22 34858ft 557kts
24-Nov-21 23:20 51.761754 79.401740 22 34860ft 557kts
24-Nov-21 23:21 51.892812 79.535724 22 34861ft 557kts
24-Nov-21 23:22 52.021702 79.668458 23 34856ft 558kts
24-Nov-21 23:23 52.152983 79.805057 23 34857ft 558kts
24-Nov-21 23:24 52.283753 79.941331 23 34859ft 558kts
24-Nov-21 23:25 52.414157 80.078457 23 34860ft 559kts
24-Nov-21 23:26 52.544636 80.216682 23 34861ft 558kts
24-Nov-21 23:27 52.675290 80.356127 23 34859ft 558kts
24-Nov-21 23:28 52.805506 80.496008 23 34859ft 560kts
24-Nov-21 23:29 52.935809 80.637134 23 34861ft 559kts
24-Nov-21 23:30 53.066334 80.779843 25 34859ft 563kts
24-Nov-21 23:31 53.197631 80.924016 24 34862ft 564kts
24-Nov-21 23:32 53.327954 81.068250 24 34860ft 561kts
24-Nov-21 23:33 53.457474 81.212606 23 34859ft 559kts
24-Nov-21 23:34 53.587124 81.358114 23 34860ft 560kts
24-Nov-21 23:35 53.716524 81.504625 23 34862ft 560kts
24-Nov-21 23:36 53.844937 81.651026 24 34858ft 560kts
24-Nov-21 23:37 53.974110 81.800070 24 34862ft 560kts
24-Nov-21 23:38 54.102755 81.949090 24 34858ft 559kts
24-Nov-21 23:39 54.232113 82.099598 24 34861ft 560kts
24-Nov-21 23:40 54.360471 82.250522 24 34860ft 561kts
24-Nov-21 23:41 54.488823 82.402759 24 34861ft 561kts
24-Nov-21 23:42 54.617800 82.550893 16 34858ft 548kts
24-Nov-21 23:43 54.756622 82.628648 353 34860ft 507kts
24-Nov-21 23:44 54.894988 82.646822 350 34860ft 502kts
24-Nov-21 23:45 55.035715 82.665107 352 34854ft 512kts
24-Nov-21 23:46 55.178558 82.684544 352 34862ft 518kts
24-Nov-21 23:47 55.322683 82.703137 350 34860ft 518kts
24-Nov-21 23:48 55.464035 82.704329 347 34861ft 509kts
24-Nov-21 23:49 55.605728 82.703814 348 34860ft 510kts
24-Nov-21 23:50 55.747958 82.703807 348 34858ft 509kts
24-Nov-21 23:51 55.889355 82.703785 347 34863ft 508kts
24-Nov-21 23:52 56.032427 82.722818 6 34853ft 539kts
24-Nov-21 23:53 56.163446 82.869453 39 34862ft 580kts
24-Nov-21 23:54 56.273844 83.080751 39 34862ft 577kts
24-Nov-21 23:55 56.385036 83.288897 39 34858ft 577kts
24-Nov-21 23:56 56.496218 83.498318 39 34871ft 575kts
24-Nov-21 23:57 56.606648 83.708512 40 34883ft 578kts
24-Nov-21 23:58 56.717146 83.921451 40 34886ft 578kts
24-Nov-21 23:59 56.827080 84.134557 40 34888ft 579kts
25-Nov-21 00:00 56.936984 84.349658 40 34885ft 579kts
25-Nov-21 00:01 57.046458 84.566024 41 34888ft 572kts
25-Nov-21 00:02 57.158725 84.768433 32 34888ft 558kts
25-Nov-21 00:03 57.285150 84.930692 27 34886ft 553kts
25-Nov-21 00:04 57.412257 85.091645 27 34888ft 553kts
25-Nov-21 00:05 57.538438 85.253684 26 34884ft 551kts
25-Nov-21 00:06 57.663863 85.416109 26 34886ft 550kts
25-Nov-21 00:07 57.789073 85.579812 26 34887ft 549kts
25-Nov-21 00:08 57.914858 85.746007 27 34886ft 552kts
25-Nov-21 00:09 58.040049 85.912437 27 34887ft 552kts
25-Nov-21 00:10 58.165401 86.079980 27 34888ft 551kts
25-Nov-21 00:11 58.290354 86.248540 27 34886ft 552kts
25-Nov-21 00:12 58.415098 86.418785 27 34887ft 551kts
25-Nov-21 00:13 58.539421 86.589980 27 34886ft 552kts
25-Nov-21 00:14 58.665589 86.756248 21 34881ft 543kts
25-Nov-21 00:15 58.798502 86.891698 19 34861ft 541kts
25-Nov-21 00:16 58.931526 87.027879 19 34862ft 534kts
25-Nov-21 00:17 59.060990 87.162036 22 34862ft 523kts
25-Nov-21 00:18 59.189040 87.294619 21 34862ft 522kts
25-Nov-21 00:19 59.317621 87.427980 21 34862ft 523kts
25-Nov-21 00:20 59.446004 87.562814 22 34862ft 523kts
25-Nov-21 00:21 59.573550 87.698112 23 34862ft 523kts
25-Nov-21 00:22 59.701337 87.835048 23 34862ft 523kts
25-Nov-21 00:23 59.829437 87.973204 22 34862ft 523kts
25-Nov-21 00:24 59.957621 88.112629 23 34862ft 523kts
25-Nov-21 00:25 60.085086 88.252496 22 34862ft 524kts
25-Nov-21 00:26 60.212837 88.393469 22 34862ft 523kts
25-Nov-21 00:27 60.339915 88.535261 22 34862ft 523kts
25-Nov-21 00:28 60.467622 88.679282 24 34862ft 524kts
25-Nov-21 00:29 60.594608 88.824223 23 34862ft 524kts
25-Nov-21 00:30 60.721657 88.970146 23 34878ft 522kts
25-Nov-21 00:31 60.847733 89.116254 23 34905ft 520kts
25-Nov-21 00:32 60.973649 89.263484 23 34913ft 520kts
25-Nov-21 00:33 61.098817 89.411262 23 34915ft 520kts
25-Nov-21 00:34 61.224271 89.560249 23 34915ft 520kts
25-Nov-21 00:36 61.349892 89.710744 24 34915ft 520kts
25-Nov-21 00:37 61.475203 89.862848 24 34915ft 521kts
25-Nov-21 00:38 61.594119 90.039863 39 34915ft 532kts
25-Nov-21 00:39 61.686713 90.284728 53 34916ft 539kts
25-Nov-21 00:40 61.769418 90.548909 52 34915ft 539kts
25-Nov-21 00:41 61.852645 90.813888 53 34915ft 540kts
25-Nov-21 00:42 61.935516 91.079736 53 34917ft 538kts
25-Nov-21 00:43 62.016839 91.343947 53 34915ft 534kts
25-Nov-21 00:44 62.097628 91.609356 53 34915ft 533kts
25-Nov-21 00:45 62.178599 91.877379 54 34916ft 534kts
25-Nov-21 00:46 62.258407 92.145736 54 34915ft 534kts
25-Nov-21 00:47 62.337540 92.415163 54 34916ft 534kts
25-Nov-21 00:48 62.416509 92.687315 55 34914ft 534kts
25-Nov-21 00:49 62.494845 92.960924 55 34916ft 534kts
25-Nov-21 00:50 62.572306 93.234441 55 34915ft 531kts
25-Nov-21 00:51 62.649002 93.508567 55 34915ft 531kts
25-Nov-21 00:52 62.725241 93.784718 56 34915ft 532kts
25-Nov-21 00:53 62.800978 94.062548 56 34915ft 532kts
25-Nov-21 00:54 62.876094 94.342400 56 34915ft 532kts
25-Nov-21 00:55 62.950397 94.623124 56 34915ft 532kts
25-Nov-21 00:56 63.024022 94.905176 57 34916ft 532kts
25-Nov-21 00:57 63.097532 95.190087 58 34915ft 532kts
25-Nov-21 00:58 63.170435 95.474357 58 34916ft 532kts
25-Nov-21 00:59 63.242778 95.761697 59 34915ft 533kts
25-Nov-21 01:00 63.314302 96.050251 59 34915ft 533kts
25-Nov-21 01:01 63.385229 96.339870 58 34915ft 532kts
25-Nov-21 01:02 63.455628 96.631010 58 34915ft 532kts
25-Nov-21 01:02 63.513701 96.874583 59 34915ft 532kts
25-Nov-21 01:04 63.594417 97.217050 60 34905ft 533kts
25-Nov-21 01:05 63.663160 97.513372 60 34891ft 534kts
25-Nov-21 01:06 63.731444 97.811891 61 34889ft 534kts
25-Nov-21 01:06 63.787664 98.060834 61 34889ft 534kts
25-Nov-21 01:07 63.854613 98.360832 61 34889ft 534kts
25-Nov-21 01:08 63.920955 98.662320 62 34887ft 534kts
25-Nov-21 01:10 63.997527 99.016091 63 34889ft 534kts
25-Nov-21 01:11 64.062483 99.320770 63 34888ft 532kts
25-Nov-21 01:11 64.116181 99.575626 63 34889ft 532kts
25-Nov-21 01:12 64.180435 99.880698 64 34889ft 532kts
25-Nov-21 01:13 64.243662 100.188225 64 34889ft 532kts
25-Nov-21 01:14 64.320452 100.477724 49 34888ft 530kts
25-Nov-21 01:16 64.439666 100.756126 38 34888ft 520kts
25-Nov-21 01:16 64.527451 100.947254 39 34889ft 519kts
25-Nov-21 01:17 64.632172 101.179747 39 34889ft 519kts
25-Nov-21 01:18 64.736635 101.413266 39 34889ft 519kts
25-Nov-21 01:19 64.840852 101.648922 39 34888ft 519kts
25-Nov-21 01:20 64.944233 101.886505 40 34889ft 520kts
25-Nov-21 01:21 65.047036 102.125279 40 34889ft 520kts
25-Nov-21 01:22 65.149763 102.365970 40 34889ft 520kts
25-Nov-21 01:23 65.252501 102.609183 40 34889ft 520kts
25-Nov-21 01:24 65.354627 102.855014 41 34886ft 521kts
25-Nov-21 01:25 65.456392 103.102540 42 34853ft 520kts
25-Nov-21 01:26 65.557878 103.352233 42 34835ft 521kts
25-Nov-21 01:27 65.658894 103.603817 42 34834ft 521kts
25-Nov-21 01:28 65.759323 103.857326 43 34834ft 521kts
25-Nov-21 01:29 65.859943 104.114107 43 34834ft 522kts
25-Nov-21 01:30 65.959456 104.371054 43 34834ft 520kts
25-Nov-21 01:31 66.058542 104.629863 43 34833ft 520kts
25-Nov-21 01:32 66.157713 104.891790 44 34834ft 521kts
25-Nov-21 01:33 66.255656 105.153221 45 34834ft 514kts
25-Nov-21 01:34 66.352167 105.414997 45 34834ft 513kts
25-Nov-21 01:35 66.448095 105.678282 46 34833ft 513kts
25-Nov-21 01:36 66.543650 105.944298 46 34834ft 514kts
25-Nov-21 01:37 66.639288 106.213444 46 34834ft 514kts
25-Nov-21 01:38 66.733883 106.483013 46 34834ft 514kts
25-Nov-21 01:39 66.828095 106.755269 47 34834ft 514kts
25-Nov-21 01:40 66.921542 107.030082 49 34834ft 513kts
25-Nov-21 01:41 67.013546 107.309876 49 34833ft 513kts
25-Nov-21 01:42 67.105095 107.591582 49 34832ft 513kts
25-Nov-21 01:43 67.196002 107.873534 50 34833ft 513kts
25-Nov-21 01:44 67.286304 108.158258 50 34834ft 513kts
25-Nov-21 01:45 67.376362 108.447237 50 34834ft 513kts
25-Nov-21 01:46 67.465492 108.737139 51 34833ft 513kts
25-Nov-21 01:47 67.554128 109.029649 51 34833ft 513kts
25-Nov-21 01:48 67.642622 109.324989 53 34834ft 516kts
25-Nov-21 01:49 67.730640 109.622207 52 34833ft 516kts
25-Nov-21 01:50 67.819287 109.922874 53 34834ft 516kts
25-Nov-21 01:51 67.906262 110.223922 53 34834ft 516kts
25-Nov-21 01:52 67.992948 110.528905 53 34833ft 516kts
25-Nov-21 01:53 68.078718 110.835269 54 34834ft 515kts
25-Nov-21 01:54 68.164109 111.142942 55 34834ft 512kts
25-Nov-21 01:55 68.248163 111.452204 55 34834ft 511kts
25-Nov-21 01:56 68.331857 111.761569 56 34834ft 511kts
25-Nov-21 01:57 68.415104 112.074982 56 34834ft 511kts
25-Nov-21 01:58 68.498367 112.389395 53 34833ft 512kts
25-Nov-21 01:59 68.596692 112.670934 45 34833ft 515kts
25-Nov-21 02:00 68.701494 112.939435 45 34832ft 519kts
25-Nov-21 02:01 68.806944 113.215441 46 34833ft 524kts
25-Nov-21 02:02 68.912588 113.494215 45 34834ft 524kts
25-Nov-21 02:03 69.017735 113.775160 47 34834ft 523kts
25-Nov-21 02:04 69.122318 114.058933 46 34832ft 524kts
25-Nov-21 02:05 69.226416 114.344645 47 34834ft 523kts
25-Nov-21 02:06 69.329986 114.634543 47 34834ft 523kts
25-Nov-21 02:07 69.432321 114.927021 48 34834ft 522kts
25-Nov-21 02:08 69.534760 115.223482 49 34833ft 527kts
25-Nov-21 02:09 69.636904 115.524178 49 34834ft 528kts
25-Nov-21 02:10 69.738857 115.828678 51 34834ft 527kts
25-Nov-21 02:11 69.839974 116.135128 50 34833ft 527kts
25-Nov-21 02:12 69.940631 116.444959 51 34833ft 526kts
25-Nov-21 02:13 70.041004 116.755723 51 34834ft 526kts
25-Nov-21 02:14 70.141052 117.069482 51 34834ft 523kts
25-Nov-21 02:15 70.239434 117.382841 51 34833ft 523kts
25-Nov-21 02:16 70.337598 117.701432 52 34834ft 523kts
25-Nov-21 02:17 70.435110 118.022155 52 34834ft 522kts
25-Nov-21 02:18 70.531953 118.346631 52 34834ft 522kts
25-Nov-21 02:19 70.628189 118.674272 53 34834ft 522kts
25-Nov-21 02:20 70.723327 119.003514 53 34835ft 518kts
25-Nov-21 02:21 70.817049 119.332877 53 34834ft 515kts
25-Nov-21 02:22 70.910535 119.666663 54 34833ft 515kts
25-Nov-21 02:23 71.002404 120.000277 54 34834ft 514kts
25-Nov-21 02:24 71.094347 120.339354 54 34834ft 514kts
25-Nov-21 02:25 71.186065 120.679779 55 34835ft 514kts
25-Nov-21 02:26 71.276452 121.023514 55 34834ft 513kts
25-Nov-21 02:27 71.365544 121.368054 56 34834ft 508kts
25-Nov-21 02:28 71.453614 121.714463 57 34834ft 508kts
25-Nov-21 02:29 71.540756 122.063060 57 34834ft 507kts
25-Nov-21 02:30 71.627843 122.417095 57 34833ft 508kts
25-Nov-21 02:31 71.714077 122.773708 58 34869ft 509kts
25-Nov-21 02:32 71.799028 123.131513 57 35240ft 501kts
25-Nov-21 02:33 71.872384 123.505344 74 35330ft 488kts
25-Nov-21 02:34 71.891779 123.924511 98 35345ft 468kts
25-Nov-21 02:35 71.880271 124.341437 99 35351ft 467kts
25-Nov-21 02:36 71.867967 124.756440 100 35351ft 467kts
25-Nov-21 02:37 71.854781 125.172843 98 35351ft 471kts
25-Nov-21 02:38 71.840881 125.590639 98 35351ft 471kts
25-Nov-21 02:39 71.825944 126.009112 99 35351ft 471kts
25-Nov-21 02:40 71.810152 126.424605 99 35351ft 471kts
25-Nov-21 02:41 71.793413 126.840353 100 35352ft 470kts
25-Nov-21 02:42 71.775664 127.254561 99 35351ft 470kts
25-Nov-21 02:43 71.757202 127.669471 100 35351ft 471kts
25-Nov-21 02:44 71.737859 128.081423 100 35351ft 470kts
25-Nov-21 02:45 71.717346 128.494485 100 35351ft 471kts
25-Nov-21 02:46 71.696894 128.907593 98 35351ft 471kts
25-Nov-21 02:47 71.687353 129.324193 94 35351ft 472kts
25-Nov-21 02:48 71.677732 129.740332 95 35351ft 472kts
25-Nov-21 02:49 71.667040 130.156853 95 35351ft 472kts
25-Nov-21 02:50 71.655711 130.572749 95 35351ft 472kts
25-Nov-21 02:51 71.643483 130.987280 96 35352ft 469kts
25-Nov-21 02:52 71.630373 131.397799 95 35351ft 467kts
25-Nov-21 02:53 71.616428 131.806218 96 35351ft 467kts
25-Nov-21 02:54 71.601527 132.216190 96 35351ft 467kts
25-Nov-21 02:55 71.585742 132.625115 96 35351ft 467kts
25-Nov-21 02:56 71.569166 133.031483 97 35351ft 467kts
25-Nov-21 02:57 71.551656 133.437859 97 35351ft 466kts
25-Nov-21 02:58 71.533236 133.844097 98 35351ft 466kts
25-Nov-21 02:59 71.513908 134.248483 98 35351ft 466kts
25-Nov-21 03:00 71.495198 134.653129 98 35351ft 466kts
25-Nov-21 03:01 71.475500 135.056180 98 35351ft 466kts
25-Nov-21 03:02 71.454859 135.458976 97 35352ft 466kts
25-Nov-21 03:03 71.433286 135.860473 98 35350ft 466kts
25-Nov-21 03:04 71.413710 136.262677 94 35352ft 466kts
25-Nov-21 03:05 71.399194 136.665592 95 35350ft 465kts
25-Nov-21 03:06 71.383637 137.067873 95 35351ft 468kts
25-Nov-21 03:07 71.367081 137.474230 95 35351ft 469kts
25-Nov-21 03:08 71.349597 137.880002 96 35351ft 469kts
25-Nov-21 03:09 71.331368 138.282069 96 35351ft 469kts
25-Nov-21 03:10 71.312123 138.685506 97 35352ft 469kts
25-Nov-21 03:11 71.291877 139.088436 96 35351ft 471kts
25-Nov-21 03:12 71.270997 139.492172 96 35352ft 474kts
25-Nov-21 03:13 71.248885 139.897636 97 35351ft 474kts
25-Nov-21 03:14 71.225794 140.301589 97 35351ft 474kts
25-Nov-21 03:15 71.201810 140.704615 98 35351ft 475kts
25-Nov-21 03:16 71.177004 141.106036 98 35330ft 475kts
25-Nov-21 03:17 71.151246 141.507979 98 35246ft 476kts
25-Nov-21 03:18 71.124566 141.909625 98 35177ft 476kts
25-Nov-21 03:19 71.096952 142.311119 99 35164ft 477kts
25-Nov-21 03:20 71.068515 142.710438 99 35162ft 477kts
25-Nov-21 03:21 71.039135 143.109311 99 35162ft 477kts
25-Nov-21 03:22 71.008931 143.505716 99 35162ft 478kts
25-Nov-21 03:23 70.978158 143.903448 99 35162ft 477kts
25-Nov-21 03:24 70.948396 144.300443 99 35162ft 478kts
25-Nov-21 03:25 70.917355 144.695701 100 35162ft 478kts
25-Nov-21 03:26 70.885124 145.090397 100 35161ft 479kts
25-Nov-21 03:27 70.851701 145.486865 100 35161ft 482kts
25-Nov-21 03:28 70.817681 145.882288 101 35162ft 483kts
25-Nov-21 03:29 70.782710 146.276454 101 35163ft 483kts
25-Nov-21 03:30 70.746695 146.668836 102 35161ft 483kts
25-Nov-21 03:31 70.709335 147.061630 103 35159ft 487kts
25-Nov-21 03:32 70.670631 147.455762 103 35161ft 489kts
25-Nov-21 03:33 70.638693 147.853905 95 35160ft 486kts
25-Nov-21 03:34 70.634116 148.256366 83 35161ft 480kts
25-Nov-21 03:35 70.643664 148.658834 83 35160ft 479kts
25-Nov-21 03:36 70.652307 149.062015 84 35158ft 486kts
25-Nov-21 03:37 70.660048 149.471012 84 35160ft 487kts
25-Nov-21 03:38 70.666860 149.879132 85 35161ft 488kts
25-Nov-21 03:39 70.672779 150.288952 85 35160ft 487kts
25-Nov-21 03:40 70.677807 150.698836 86 35162ft 488kts
25-Nov-21 03:41 70.681892 151.108187 86 35158ft 492kts
25-Nov-21 03:42 70.685152 151.526748 86 35162ft 501kts
25-Nov-21 03:43 70.687419 151.947521 87 35158ft 501kts
25-Nov-21 03:44 70.688756 152.368578 87 35161ft 500kts
25-Nov-21 03:45 70.689120 152.789543 88 35157ft 501kts
25-Nov-21 03:46 70.688478 153.212225 88 35161ft 505kts
25-Nov-21 03:47 70.686906 153.636949 88 35160ft 504kts
25-Nov-21 03:48 70.684334 154.061568 89 35160ft 504kts
25-Nov-21 03:49 70.680772 154.485320 89 35161ft 505kts
25-Nov-21 03:50 70.676217 154.909037 89 35161ft 505kts
25-Nov-21 03:51 70.670612 155.334941 89 35162ft 506kts
25-Nov-21 03:52 70.663935 155.760697 90 35162ft 506kts
25-Nov-21 03:53 70.655965 156.185089 91 35162ft 507kts
25-Nov-21 03:55 70.646199 156.609871 91 35162ft 506kts
25-Nov-21 03:56 70.635408 157.033269 92 35161ft 507kts
25-Nov-21 03:57 70.623504 157.460522 91 35162ft 511kts
25-Nov-21 03:58 70.610647 157.886446 92 35162ft 511kts
25-Nov-21 03:59 70.596778 158.311963 92 35162ft 511kts
25-Nov-21 04:00 70.581862 158.738226 93 35162ft 511kts
25-Nov-21 04:01 70.565916 159.164279 93 35162ft 516kts
25-Nov-21 04:02 70.548778 159.596813 95 35162ft 526kts
25-Nov-21 04:03 70.530225 160.031777 96 35162ft 526kts
25-Nov-21 04:04 70.510578 160.467559 95 35162ft 527kts
25-Nov-21 04:05 70.491864 160.903598 96 35163ft 527kts
25-Nov-21 04:06 70.471958 161.334410 96 35164ft 529kts
25-Nov-21 04:07 70.450647 161.768848 97 35162ft 529kts
25-Nov-21 04:08 70.428282 162.203038 96 35161ft 529kts
25-Nov-21 04:09 70.406331 162.637263 96 35161ft 527kts
25-Nov-21 04:10 70.383083 163.068946 97 35172ft 528kts
25-Nov-21 04:11 70.358574 163.501192 97 35187ft 530kts
25-Nov-21 04:12 70.333094 163.932185 98 35187ft 530kts
25-Nov-21 04:13 70.306410 164.364160 98 35189ft 530kts
25-Nov-21 04:14 70.278855 164.792886 99 35187ft 529kts
25-Nov-21 04:15 70.250171 165.222340 99 35188ft 534kts
25-Nov-21 04:16 70.220321 165.651646 100 35189ft 534kts
25-Nov-21 04:17 70.189388 166.081312 101 35202ft 534kts
25-Nov-21 04:18 70.157351 166.509360 101 35214ft 534kts
25-Nov-21 04:19 70.124359 166.934837 102 35215ft 534kts
25-Nov-21 04:20 70.090039 167.360533 102 35215ft 534kts
25-Nov-21 04:21 70.053763 167.784452 104 35214ft 535kts
25-Nov-21 04:22 70.016276 168.204702 104 35215ft 534kts
25-Nov-21 04:22 69.983933 168.555653 104 35216ft 534kts
25-Nov-21 04:23 69.945587 168.974103 104 35215ft 534kts
25-Nov-21 04:25 69.899189 169.461723 104 35215ft 535kts
25-Nov-21 04:26 69.857845 169.876765 105 35215ft 535kts
25-Nov-21 04:27 69.815840 170.290738 105 35215ft 535kts
25-Nov-21 04:27 69.782218 170.635207 100 35215ft 534kts
25-Nov-21 04:28 69.755991 171.059857 98 35215ft 534kts
25-Nov-21 04:29 69.729321 171.480893 98 35215ft 533kts
25-Nov-21 04:31 69.697052 171.970199 99 35215ft 533kts
25-Nov-21 04:32 69.668279 172.390586 99 35215ft 534kts
25-Nov-21 04:32 69.643265 172.740663 100 35214ft 534kts
25-Nov-21 04:33 69.612573 173.156913 100 35215ft 532kts
25-Nov-21 04:34 69.580831 173.572432 100 35215ft 532kts
25-Nov-21 04:35 69.548569 173.981371 101 35215ft 532kts
25-Nov-21 04:36 69.514857 174.394713 101 35215ft 532kts
25-Nov-21 04:37 69.480195 174.806351 102 35215ft 532kts
25-Nov-21 04:38 69.444674 175.215233 102 35215ft 532kts
25-Nov-21 04:39 69.408085 175.623489 102 35215ft 531kts
25-Nov-21 04:40 69.370854 176.026085 103 35215ft 532kts
25-Nov-21 04:41 69.332497 176.432137 103 35215ft 531kts
25-Nov-21 04:42 69.293642 176.834204 104 35215ft 532kts
25-Nov-21 04:43 69.253334 177.237021 104 35215ft 532kts
25-Nov-21 04:44 69.212130 177.637828 104 35215ft 532kts
25-Nov-21 04:45 69.169929 178.038157 105 35215ft 532kts
25-Nov-21 04:46 69.126982 178.435005 105 35215ft 533kts
25-Nov-21 04:47 69.082920 178.831710 106 35215ft 533kts
25-Nov-21 04:48 69.037791 179.228233 106 35215ft 533kts
25-Nov-21 04:49 68.991832 179.622159 106 35216ft 533kts
25-Nov-21 04:50 68.945181 -179.987295 107 35215ft 533kts
25-Nov-21 04:51 68.897575 -179.599413 107 34986ft 531kts
25-Nov-21 04:52 68.847686 -179.213862 110 34937ft 532kts
25-Nov-21 04:53 68.794641 -178.837300 110 34932ft 531kts
25-Nov-21 04:54 68.740087 -178.456475 110 34929ft 531kts
25-Nov-21 04:55 68.685048 -178.079470 111 34931ft 531kts
25-Nov-21 04:56 68.628950 -177.704287 111 34930ft 531kts
25-Nov-21 04:57 68.566753 -177.335187 117 34931ft 532kts
25-Nov-21 04:58 68.499165 -176.982161 117 34931ft 531kts
25-Nov-21 04:59 68.430128 -176.628122 117 34931ft 529kts
25-Nov-21 05:00 68.360356 -176.276303 118 34929ft 529kts
25-Nov-21 05:01 68.289470 -175.924202 118 34931ft 530kts
25-Nov-21 05:02 68.218263 -175.577095 118 34932ft 529kts
25-Nov-21 05:03 68.146130 -175.231091 119 34929ft 529kts
25-Nov-21 05:04 68.073477 -174.888038 119 34930ft 529kts
25-Nov-21 05:05 67.999883 -174.546867 119 34930ft 528kts
25-Nov-21 05:06 67.925482 -174.208603 120 34930ft 530kts
25-Nov-21 05:07 67.850806 -173.872932 120 34930ft 529kts
25-Nov-21 05:08 67.775095 -173.537951 119 34928ft 529kts
25-Nov-21 05:09 67.698731 -173.203629 121 34930ft 529kts
25-Nov-21 05:10 67.621857 -172.873562 121 34929ft 529kts
25-Nov-21 05:11 67.544331 -172.545999 121 34931ft 530kts
25-Nov-21 05:12 67.465854 -172.219198 122 34932ft 529kts
25-Nov-21 05:13 67.386860 -171.894191 121 34930ft 529kts
25-Nov-21 05:14 67.308005 -171.572809 122 34930ft 530kts
25-Nov-21 05:15 67.227642 -171.252078 123 34930ft 529kts
25-Nov-21 05:16 67.146719 -170.936099 124 34929ft 529kts
25-Nov-21 05:17 67.061114 -170.627785 125 34931ft 529kts
25-Nov-21 05:18 66.980483 -170.316692 123 34928ft 528kts
25-Nov-21 05:19 66.899000 -170.004129 123 34931ft 529kts
25-Nov-21 05:20 66.816708 -169.695521 123 34929ft 529kts
25-Nov-21 05:21 66.733469 -169.386479 123 34930ft 528kts
25-Nov-21 05:22 66.656424 -169.071526 110 34933ft 527kts
25-Nov-21 05:23 66.635667 -168.712762 81 34932ft 518kts
25-Nov-21 05:24 66.657334 -168.353058 78 34932ft 516kts
25-Nov-21 05:25 66.678220 -167.994061 79 34931ft 517kts
25-Nov-21 05:26 66.697958 -167.633721 79 34928ft 517kts
25-Nov-21 05:27 66.716776 -167.274486 80 34895ft 517kts
25-Nov-21 05:28 66.734806 -166.913212 80 34909ft 516kts
25-Nov-21 05:29 66.751980 -166.552705 80 34911ft 513kts
25-Nov-21 05:30 66.768268 -166.193351 81 34911ft 514kts
25-Nov-21 05:31 66.783742 -165.832968 81 34910ft 514kts
25-Nov-21 05:32 66.798425 -165.471739 81 34911ft 514kts
25-Nov-21 05:33 66.812298 -165.109058 82 34912ft 515kts
25-Nov-21 05:34 66.825240 -164.748972 82 34912ft 511kts
25-Nov-21 05:35 66.837365 -164.388626 82 34911ft 511kts
25-Nov-21 05:36 66.848659 -164.027461 83 34912ft 511kts
25-Nov-21 05:37 66.859148 -163.665647 83 34906ft 511kts
25-Nov-21 05:38 66.868734 -163.305567 84 34893ft 511kts
25-Nov-21 05:39 66.877421 -162.944355 84 34873ft 510kts
25-Nov-21 05:40 66.881394 -162.583655 90 34865ft 512kts
25-Nov-21 05:41 66.858453 -162.224597 101 34865ft 515kts
25-Nov-21 05:42 66.825716 -161.869275 101 34867ft 515kts
25-Nov-21 05:43 66.792647 -161.516763 101 34878ft 515kts
25-Nov-21 05:44 66.758722 -161.163533 102 34883ft 515kts
25-Nov-21 05:45 66.724176 -160.811988 103 34883ft 513kts
25-Nov-21 05:46 66.688805 -160.462679 103 34882ft 512kts
25-Nov-21 05:47 66.652882 -160.115831 104 34888ft 511kts
25-Nov-21 05:48 66.616135 -159.769277 104 34890ft 511kts
25-Nov-21 05:49 66.578445 -159.422477 104 34892ft 511kts
25-Nov-21 05:50 66.540327 -159.079115 105 34892ft 511kts
25-Nov-21 05:51 66.501508 -158.737189 106 34889ft 508kts
25-Nov-21 05:52 66.461850 -158.396465 106 34861ft 509kts
25-Nov-21 05:53 66.421575 -158.056935 106 34850ft 509kts
25-Nov-21 05:54 66.380427 -157.717698 107 34848ft 509kts
25-Nov-21 05:55 66.338728 -157.381346 107 34847ft 509kts
25-Nov-21 05:56 66.296247 -157.044884 108 34804ft 507kts
25-Nov-21 05:57 66.253778 -156.715731 108 34747ft 504kts
25-Nov-21 05:58 66.210220 -156.384923 108 34737ft 505kts
25-Nov-21 05:59 66.165916 -156.054480 109 34735ft 504kts
25-Nov-21 06:00 66.121030 -155.726432 109 34734ft 504kts
25-Nov-21 06:01 66.075194 -155.397831 109 34736ft 505kts
25-Nov-21 06:02 66.028707 -155.070174 110 34727ft 505kts
25-Nov-21 06:03 65.981933 -154.746580 110 34650ft 502kts
25-Nov-21 06:04 65.934209 -154.422980 110 34603ft 503kts
25-Nov-21 06:05 65.886051 -154.102422 111 34595ft 503kts
25-Nov-21 06:06 65.836547 -153.781053 111 34605ft 503kts
25-Nov-21 06:07 65.786872 -153.461737 111 34618ft 504kts
25-Nov-21 06:08 65.736777 -153.144496 112 34621ft 503kts
25-Nov-21 06:09 65.686245 -152.829088 114 34619ft 497kts
25-Nov-21 06:10 65.634982 -152.516192 113 34621ft 496kts
25-Nov-21 06:11 65.583467 -152.206115 114 34619ft 496kts
25-Nov-21 06:12 65.531821 -151.899778 114 34619ft 498kts
25-Nov-21 06:13 65.479041 -151.592144 114 34621ft 497kts
25-Nov-21 06:14 65.425438 -151.284395 115 34621ft 497kts
25-Nov-21 06:15 65.371513 -150.978791 116 34622ft 493kts
25-Nov-21 06:16 65.317662 -150.679476 116 34620ft 491kts
25-Nov-21 06:17 65.263073 -150.380500 116 34552ft 489kts
25-Nov-21 06:18 65.207886 -150.082127 117 34506ft 490kts
25-Nov-21 06:19 65.152373 -149.786665 117 34499ft 490kts
25-Nov-21 06:20 65.096094 -149.491774 117 34502ft 490kts
25-Nov-21 06:21 65.039229 -149.197772 118 34501ft 490kts
25-Nov-21 06:22 64.981741 -148.904584 119 34502ft 489kts
25-Nov-21 06:23 64.923891 -148.614588 120 34500ft 488kts
25-Nov-21 06:24 64.864912 -148.325158 121 34503ft 489kts
25-Nov-21 06:25 64.805600 -148.038380 122 34501ft 487kts
25-Nov-21 06:26 64.735716 -147.766999 126 34501ft 486kts
25-Nov-21 06:27 64.663629 -147.498747 126 34499ft 486kts
25-Nov-21 06:28 64.591484 -147.233432 127 34483ft 485kts
25-Nov-21 06:29 64.518664 -146.968491 128 34475ft 484kts
25-Nov-21 06:30 64.445554 -146.706366 128 34473ft 482kts
25-Nov-21 06:31 64.372385 -146.447442 128 34465ft 482kts
25-Nov-21 06:32 64.298659 -146.189269 129 34418ft 481kts
25-Nov-21 06:33 64.225053 -145.932226 129 34401ft 481kts
25-Nov-21 06:34 64.150447 -145.676318 129 34398ft 481kts
25-Nov-21 06:35 64.075665 -145.423012 129 34398ft 481kts
25-Nov-21 06:36 64.000237 -145.169965 130 34398ft 481kts
25-Nov-21 06:37 63.925018 -144.920293 131 34398ft 478kts
25-Nov-21 06:38 63.848794 -144.672105 131 34398ft 478kts
25-Nov-21 06:39 63.772393 -144.425280 131 34397ft 478kts
25-Nov-21 06:40 63.695868 -144.179873 132 34398ft 478kts
25-Nov-21 06:41 63.618861 -143.936282 132 34397ft 478kts
25-Nov-21 06:42 63.541339 -143.692289 132 34375ft 479kts
25-Nov-21 06:43 63.463694 -143.450724 132 34362ft 479kts
25-Nov-21 06:44 63.385609 -143.210575 133 34360ft 478kts
25-Nov-21 06:45 63.306960 -142.971412 133 34360ft 479kts
25-Nov-21 06:46 63.227164 -142.731758 133 34360ft 484kts
25-Nov-21 06:47 63.146896 -142.493129 133 34360ft 483kts
25-Nov-21 06:48 63.066305 -142.256127 134 34360ft 482kts
25-Nov-21 06:49 62.985192 -142.020429 134 34357ft 482kts
25-Nov-21 06:50 62.894763 -141.807648 145 34361ft 471kts
25-Nov-21 06:51 62.796691 -141.618472 144 34360ft 471kts
25-Nov-21 06:52 62.698527 -141.429679 144 34360ft 471kts
25-Nov-21 06:53 62.600280 -141.242168 145 34360ft 470kts
25-Nov-21 06:54 62.501194 -141.055284 145 34359ft 472kts
25-Nov-21 06:55 62.398978 -140.875492 147 34359ft 478kts
25-Nov-21 06:56 62.294266 -140.696981 147 34360ft 479kts
25-Nov-21 06:57 62.189365 -140.520516 147 34343ft 479kts
25-Nov-21 06:58 62.084433 -140.345757 148 34271ft 479kts
25-Nov-21 06:59 61.978815 -140.170902 148 34241ft 479kts
25-Nov-21 07:00 61.874408 -140.000100 148 34238ft 479kts
25-Nov-21 07:01 61.768852 -139.829616 148 34237ft 479kts
25-Nov-21 07:02 61.663959 -139.660950 148 35634ft 460kts
25-Nov-21 07:03 61.561970 -139.498777 148 36240ft 467kts
25-Nov-21 07:04 61.457723 -139.334077 149 36240ft 468kts
25-Nov-21 07:05 61.353971 -139.171019 149 36240ft 468kts
25-Nov-21 07:06 61.249233 -139.008547 147 36240ft 473kts
25-Nov-21 07:07 61.143345 -138.845351 147 36241ft 476kts
25-Nov-21 07:08 61.036848 -138.682613 147 36241ft 476kts
25-Nov-21 07:09 60.930256 -138.521238 147 36241ft 476kts
25-Nov-21 07:10 60.823244 -138.361182 147 36240ft 476kts
25-Nov-21 07:11 60.716412 -138.202036 147 36241ft 475kts
25-Nov-21 07:12 60.609755 -138.044518 148 36241ft 475kts
25-Nov-21 07:13 60.503038 -137.888333 148 36241ft 475kts
25-Nov-21 07:14 60.395725 -137.732583 148 36241ft 475kts
25-Nov-21 07:15 60.288114 -137.577688 148 36241ft 476kts
25-Nov-21 07:16 60.180214 -137.423645 148 36236ft 476kts
25-Nov-21 07:17 60.072377 -137.270677 148 36201ft 475kts
25-Nov-21 07:19 59.964286 -137.118533 148 36176ft 475kts
25-Nov-21 07:20 59.855779 -136.967584 149 36173ft 476kts
25-Nov-21 07:21 59.746727 -136.817368 149 36173ft 479kts
25-Nov-21 07:22 59.636897 -136.666948 149 36174ft 480kts
25-Nov-21 07:23 59.527122 -136.517731 149 36174ft 481kts
25-Nov-21 07:24 59.416688 -136.368816 149 36174ft 481kts
25-Nov-21 07:25 59.306564 -136.221021 150 36173ft 480kts
25-Nov-21 07:26 59.196166 -136.074330 150 36170ft 480kts
25-Nov-21 07:27 59.085881 -135.929103 150 36167ft 480kts
25-Nov-21 07:28 58.975025 -135.784192 150 36158ft 480kts
25-Nov-21 07:29 58.864463 -135.640977 151 36159ft 480kts
25-Nov-21 07:30 58.753244 -135.498617 151 36154ft 480kts
25-Nov-21 07:31 58.642185 -135.357019 151 36155ft 480kts
25-Nov-21 07:32 58.530994 -135.215767 152 36155ft 480kts
25-Nov-21 07:33 58.419613 -135.075667 152 36154ft 480kts
25-Nov-21 07:34 58.308169 -134.936675 152 36156ft 481kts
25-Nov-21 07:35 58.195819 -134.797726 153 36153ft 482kts
25-Nov-21 07:36 58.083542 -134.659913 153 36155ft 482kts
25-Nov-21 07:37 57.971214 -134.523044 153 36160ft 481kts
25-Nov-21 07:38 57.858993 -134.387553 153 36171ft 481kts
25-Nov-21 07:39 57.746650 -134.252724 153 36172ft 481kts
25-Nov-21 07:40 57.633990 -134.118355 153 36170ft 481kts
25-Nov-21 07:41 57.521039 -133.984789 154 36195ft 481kts
25-Nov-21 07:42 57.408599 -133.852828 154 36221ft 481kts
25-Nov-21 07:43 57.295601 -133.721215 154 36229ft 481kts
25-Nov-21 07:44 57.182015 -133.589862 154 36230ft 483kts
25-Nov-21 07:45 57.068093 -133.459066 154 36230ft 484kts
25-Nov-21 07:46 56.953994 -133.328897 155 36240ft 484kts
25-Nov-21 07:47 56.839508 -133.199212 155 36272ft 484kts
25-Nov-21 07:48 56.724988 -133.070777 155 36284ft 485kts
25-Nov-21 07:49 56.609697 -132.942256 156 36284ft 486kts
25-Nov-21 07:50 56.494691 -132.815034 156 36285ft 486kts
25-Nov-21 07:51 56.379025 -132.687973 156 36283ft 487kts
25-Nov-21 07:51 56.282904 -132.583033 156 36286ft 487kts
25-Nov-21 07:52 56.168294 -132.458734 156 36286ft 486kts
25-Nov-21 07:54 56.034461 -132.314588 156 36312ft 488kts
25-Nov-21 07:55 55.919519 -132.191298 156 36390ft 487kts
25-Nov-21 07:56 55.802904 -132.067923 156 36415ft 489kts
25-Nov-21 07:56 55.706625 -131.966578 156 36420ft 488kts
25-Nov-21 07:57 55.590597 -131.845110 156 36416ft 487kts
25-Nov-21 07:58 55.474000 -131.723881 156 36419ft 487kts
25-Nov-21 08:00 55.337649 -131.583147 156 36417ft 486kts
25-Nov-21 08:01 55.220793 -131.463459 157 36439ft 488kts
25-Nov-21 08:01 55.123396 -131.364266 157 36459ft 487kts
25-Nov-21 08:02 55.006620 -131.245617 157 36463ft 487kts
25-Nov-21 08:03 54.889778 -131.127987 158 36436ft 486kts
25-Nov-21 08:04 54.772376 -131.011279 158 36430ft 486kts
25-Nov-21 08:05 54.656614 -130.896565 159 36460ft 489kts
25-Nov-21 08:06 54.538501 -130.780268 160 36509ft 492kts
25-Nov-21 08:07 54.419504 -130.663944 160 36521ft 491kts
25-Nov-21 08:08 54.300599 -130.548483 160 36521ft 492kts
25-Nov-21 08:09 54.181818 -130.433850 160 36521ft 492kts
25-Nov-21 08:10 54.062579 -130.319446 160 36520ft 491kts
25-Nov-21 08:11 53.944219 -130.206263 160 36520ft 491kts
25-Nov-21 08:12 53.824974 -130.093620 161 36521ft 491kts
25-Nov-21 08:13 53.705848 -129.981813 160 36520ft 489kts
25-Nov-21 08:14 53.586493 -129.870422 160 36521ft 489kts
25-Nov-21 08:15 53.467435 -129.759995 160 36519ft 491kts
25-Nov-21 08:16 53.347709 -129.649678 160 36521ft 491kts
25-Nov-21 08:17 53.228662 -129.540648 160 36526ft 490kts
25-Nov-21 08:18 53.108720 -129.431543 161 36569ft 490kts
25-Nov-21 08:19 52.989371 -129.323256 163 36617ft 488kts
25-Nov-21 08:20 52.870201 -129.215937 164 36633ft 487kts
25-Nov-21 08:21 52.750802 -129.109671 164 36631ft 488kts
25-Nov-21 08:22 52.631551 -129.003760 165 36633ft 487kts
25-Nov-21 08:23 52.512439 -128.898734 167 36634ft 487kts
25-Nov-21 08:24 52.392838 -128.794126 167 36645ft 487kts
25-Nov-21 08:25 52.273631 -128.690405 167 36751ft 485kts
25-Nov-21 08:26 52.154537 -128.587355 167 36931ft 485kts
25-Nov-21 08:27 52.035488 -128.485036 167 37015ft 485kts
25-Nov-21 08:28 51.916566 -128.383385 167 37032ft 484kts
25-Nov-21 08:29 51.797852 -128.282303 168 37033ft 483kts
25-Nov-21 08:30 51.678670 -128.181469 168 37035ft 485kts
25-Nov-21 08:31 51.560075 -128.081885 168 37034ft 483kts
25-Nov-21 08:32 51.440636 -127.982225 167 37034ft 484kts
25-Nov-21 08:33 51.321510 -127.883447 168 37034ft 484kts
25-Nov-21 08:34 51.202139 -127.785009 168 37034ft 483kts
25-Nov-21 08:35 51.082580 -127.687034 168 37034ft 482kts
25-Nov-21 08:36 50.962617 -127.589565 166 37035ft 488kts
25-Nov-21 08:37 50.841640 -127.491822 164 37037ft 491kts
25-Nov-21 08:38 50.720390 -127.393423 162 37034ft 495kts
25-Nov-21 08:39 50.606100 -127.269176 154 37032ft 505kts
25-Nov-21 08:40 50.495289 -127.134064 155 37033ft 505kts
25-Nov-21 08:41 50.383365 -126.999107 155 37033ft 513kts
25-Nov-21 08:42 50.269829 -126.863079 155 37036ft 518kts
25-Nov-21 08:43 50.155961 -126.727380 155 37035ft 517kts
25-Nov-21 08:44 50.041445 -126.591772 155 37033ft 517kts
25-Nov-21 08:45 49.927351 -126.457526 155 37059ft 516kts
25-Nov-21 08:46 49.812550 -126.323576 156 37084ft 516kts
25-Nov-21 08:47 49.698558 -126.190610 156 37090ft 513kts
25-Nov-21 08:48 49.584223 -126.058593 156 37088ft 516kts
25-Nov-21 08:49 49.469460 -125.926756 156 37088ft 515kts
25-Nov-21 08:50 49.354756 -125.795925 156 37088ft 517kts
25-Nov-21 08:51 49.239308 -125.664993 156 37088ft 518kts
25-Nov-21 08:52 49.123692 -125.534814 156 37087ft 515kts
25-Nov-21 08:53 49.008290 -125.405487 154 37087ft 519kts
25-Nov-21 08:54 48.891427 -125.274299 155 37090ft 522kts
25-Nov-21 08:55 48.774614 -125.144808 155 37091ft 521kts
25-Nov-21 08:56 48.657395 -125.015763 155 37136ft 521kts
25-Nov-21 08:57 48.540347 -124.887897 155 37197ft 527kts
25-Nov-21 08:58 48.420921 -124.757623 155 37208ft 532kts
25-Nov-21 08:59 48.301455 -124.626724 151 37209ft 537kts
25-Nov-21 09:00 48.188565 -124.476754 148 37209ft 542kts
25-Nov-21 09:01 48.076251 -124.326675 148 37207ft 543kts
25-Nov-21 09:02 47.963312 -124.176476 149 37208ft 542kts
25-Nov-21 09:03 47.849935 -124.027417 149 37192ft 542kts
25-Nov-21 09:04 47.736746 -123.879617 149 37180ft 543kts
25-Nov-21 09:05 47.623777 -123.732695 149 37183ft 543kts
25-Nov-21 09:06 47.510275 -123.585935 149 37255ft 542kts
25-Nov-21 09:07 47.396881 -123.440209 149 37305ft 542kts
25-Nov-21 09:08 47.282818 -123.294286 149 37309ft 541kts
25-Nov-21 09:09 47.169323 -123.150043 149 37310ft 541kts
25-Nov-21 09:10 47.055457 -123.006616 148 37311ft 545kts
25-Nov-21 09:11 46.951735 -122.839286 131 37331ft 564kts
25-Nov-21 09:12 46.871915 -122.641609 122 37334ft 560kts
25-Nov-21 09:13 46.795838 -122.443941 123 37325ft 560kts
25-Nov-21 09:14 46.719256 -122.246800 123 37313ft 559kts
25-Nov-21 09:15 46.636134 -122.057759 139 37311ft 547kts
25-Nov-21 09:16 46.514254 -121.946087 171 37312ft 512kts
25-Nov-21 09:17 46.377763 -121.894616 174 37313ft 508kts
25-Nov-21 09:18 46.240859 -121.842952 173 37370ft 510kts
25-Nov-21 09:19 46.104295 -121.791027 173 37424ft 509kts
25-Nov-21 09:20 45.967716 -121.739344 173 37435ft 508kts
25-Nov-21 09:21 45.832145 -121.688354 173 37438ft 508kts
25-Nov-21 09:22 45.695570 -121.637252 173 37438ft 509kts
25-Nov-21 09:23 45.558560 -121.586194 173 37438ft 509kts
25-Nov-21 09:24 45.428904 -121.538117 173 37438ft 509kts
25-Nov-21 09:25 45.291914 -121.487555 173 37438ft 509kts
25-Nov-21 09:26 45.155469 -121.437459 173 37438ft 509kts
25-Nov-21 09:27 45.018654 -121.387618 172 37438ft 512kts
25-Nov-21 09:28 44.880266 -121.337157 172 37434ft 514kts
25-Nov-21 09:29 44.742205 -121.286765 172 37420ft 514kts
25-Nov-21 09:30 44.603977 -121.237021 172 37414ft 514kts
25-Nov-21 09:31 44.465921 -121.187648 172 37414ft 514kts
25-Nov-21 09:32 44.327260 -121.138399 172 37414ft 516kts
25-Nov-21 09:33 44.187938 -121.089268 172 37416ft 520kts
25-Nov-21 09:34 44.047949 -121.039296 171 37421ft 521kts
25-Nov-21 09:35 43.907269 -120.989774 171 37427ft 524kts
25-Nov-21 09:36 43.765660 -120.940408 171 37430ft 525kts
25-Nov-21 09:37 43.624581 -120.891353 171 37429ft 525kts
25-Nov-21 09:38 43.482827 -120.842324 171 37430ft 526kts
25-Nov-21 09:39 43.341599 -120.793699 171 37430ft 526kts
25-Nov-21 09:40 43.200307 -120.745302 171 37429ft 525kts
25-Nov-21 09:41 43.058529 -120.696970 171 37468ft 525kts
25-Nov-21 09:42 42.919489 -120.649933 170 37526ft 527kts
25-Nov-21 09:43 42.776952 -120.601859 170 37543ft 528kts
25-Nov-21 09:44 42.635259 -120.554306 170 37547ft 528kts
25-Nov-21 09:45 42.492525 -120.506746 170 37547ft 528kts
25-Nov-21 09:46 42.349674 -120.463178 171 37548ft 526kts
25-Nov-21 09:47 42.206985 -120.420691 171 37548ft 527kts
25-Nov-21 09:48 42.064107 -120.378198 171 37595ft 528kts
25-Nov-21 09:49 41.923454 -120.336373 172 39231ft 514kts
25-Nov-21 09:50 41.784270 -120.295104 172 40043ft 514kts
25-Nov-21 09:51 41.644532 -120.254142 172 40722ft 515kts
25-Nov-21 09:52 41.505306 -120.213524 172 41342ft 515kts
25-Nov-21 09:53 41.364479 -120.172688 172 41540ft 524kts
25-Nov-21 09:54 41.222066 -120.131687 172 41540ft 527kts
25-Nov-21 09:55 41.079422 -120.090434 171 41539ft 528kts
25-Nov-21 09:56 40.935728 -120.049229 170 41540ft 531kts
25-Nov-21 09:57 40.791064 -120.007869 170 41580ft 531kts
25-Nov-21 09:58 40.648432 -119.966939 170 41618ft 531kts
25-Nov-21 09:59 40.504285 -119.926116 170 41627ft 531kts
25-Nov-21 10:00 40.360427 -119.885611 170 41628ft 531kts
25-Nov-21 10:01 40.216406 -119.845240 170 41625ft 531kts
25-Nov-21 10:02 40.072218 -119.805058 170 41621ft 531kts
25-Nov-21 10:03 39.929493 -119.765592 170 41622ft 523kts
25-Nov-21 10:04 39.787719 -119.726151 170 41621ft 522kts
25-Nov-21 10:05 39.646094 -119.687186 170 41623ft 522kts
25-Nov-21 10:06 39.504316 -119.651408 175 41632ft 519kts
25-Nov-21 10:07 39.268480 -119.617085 176 41642ft 519kts
25-Nov-21 10:08 38.983805 -119.576166 176 41641ft 519kts
25-Nov-21 10:09 38.695893 -119.535221 174 41639ft 523kts
25-Nov-21 10:10 38.407028 -119.494178 175 41635ft 523kts
25-Nov-21 10:11 38.116574 -119.453146 174 41643ft 523kts
25-Nov-21 10:12 37.826786 -119.412763 174 41648ft 524kts
25-Nov-21 10:13 37.536185 -119.372330 174 41650ft 523kts
25-Nov-21 10:14 37.248281 -119.332381 175 41614ft 523kts
25-Nov-21 10:15 36.957348 -119.293002 173 41527ft 529kts
25-Nov-21 10:16 35.815141 -119.140220 173 41567ft 531kts
25-Nov-21 10:17 35.671473 -119.121290 173 41505ft 532kts
25-Nov-21 10:18 35.524934 -119.096771 169 41495ft 524kts
25-Nov-21 10:19 35.382510 -119.067355 172 41427ft 519kts
25-Nov-21 10:20 35.237078 -119.045628 172 38357ft 534kts
25-Nov-21 10:21 35.089720 -119.023481 172 35484ft 533kts
25-Nov-21 10:22 34.942199 -119.001339 170 32111ft 540kts
25-Nov-21 10:23 34.798405 -118.979883 169 27821ft 529kts
25-Nov-21 10:24 34.656891 -118.958942 168 23680ft 492kts
25-Nov-21 10:25 34.520851 -118.936597 167 23376ft 491kts
25-Nov-21 10:26 34.386072 -118.914621 167 22732ft 484kts
25-Nov-21 10:27 34.254799 -118.889562 150 19819ft 464kts
25-Nov-21 10:28 34.157404 -118.802413 131 17300ft 419kts
25-Nov-21 10:29 34.077897 -118.715668 131 11813ft 364kts
25-Nov-21 10:30 34.024419 -118.631818 88 8783ft 273kts
25-Nov-21 10:31 34.019047 -118.553167 88 8102ft 216kts
25-Nov-21 10:32 34.012521 -118.480956 90 7770ft 216kts
25-Nov-21 10:33 34.019187 -118.405794 75 6100ft 242kts
25-Nov-21 10:34 34.029979 -118.333170 82 6044ft 203kts
25-Nov-21 10:35 34.036932 -118.265146 81 6044ft 204kts
25-Nov-21 10:36 34.043995 -118.197082 80 6044ft 204kts
25-Nov-21 10:37 34.050043 -118.127503 81 5155ft 226kts
25-Nov-21 10:38 34.055435 -118.051037 85 3557ft 223kts
25-Nov-21 10:39 34.011891 -118.025171 227 3537ft 227kts
25-Nov-21 10:40 33.985767 -118.091038 252 3539ft 217kts
25-Nov-21 10:41 33.976954 -118.161411 265 2479ft 205kts
25-Nov-21 10:42 33.970155 -118.227553 265 2339ft 196kts
25-Nov-21 10:43 33.963352 -118.292582 265 1928ft 191kts
25-Nov-21 10:44 33.957606 -118.348213 264 1019ft 148kts
25-Nov-21 10:45 33.952571 -118.397264 264 249ft 145kts
25-Nov-21 10:46 33.949833 -118.423724 259 117ft 40kts
25-Nov-21 10:47 33.948589 -118.426623 227 116ft 0kts
25-Nov-21 10:48 33.948480 -118.426785 229 116ft 0kts
25-Nov-21 10:49 33.947219 -118.427664 195 116ft 19kts
25-Nov-21 10:50 33.941206 -118.427027 174 116ft 23kts
25-Nov-21 10:52 33.937219 -118.423208 83 116ft 23kts
25-Nov-21 10:53 33.938078 -118.414851 81 116ft 27kts
25-Nov-21 10:54 33.938899 -118.406634 84 116ft 22kts
25-Nov-21 10:55 33.939619 -118.399778 80 116ft 9kts
25-Nov-21 10:56 33.940174 -118.399450 20 116ft 0kts
25-Nov-21 10:57 33.940174 -118.399450 20 116ft 0kts

Navigation Log

Ident Type
Flight plan parsing failed, navigation log unavailable